Time;durP1;ratioP1;P1;durP2;ratioP2;P2;SDS_P1;SDS_P2;PMS_P1;PMS_P2;Temp;Humidity;BMP_temperature;BMP_pressure;BME280_temperature;BME280_humidity;BME280_pressure;Samples;Min_cycle;Max_cycle;Signal;HPM_P1;HPM_P2
2022/12/18 00:01:52;;;;;;;19.23;9.27;;;;;;;8.44;nan;-24052.78;5033058;28;20265;-87
2022/12/18 00:04:23;;;;;;;20.03;11.40;;;;;;;8.64;nan;-24058.28;5032298;28;20686;-86
2022/12/18 00:06:48;;;;;;;18.80;10.30;;;;;;;8.57;nan;-24056.44;5033568;28;20241;-83
2022/12/18 00:09:14;;;;;;;19.80;10.70;;;;;;;8.22;nan;-24046.69;5034384;28;20179;-85
2022/12/18 00:11:39;;;;;;;19.23;10.32;;;;;;;8.56;nan;-24056.03;5033083;28;20186;-86
2022/12/18 00:14:05;;;;;;;18.83;9.27;;;;;;;8.71;nan;-24060.41;5032727;28;20249;-86
2022/12/18 00:16:32;;;;;;;17.55;8.98;;;;;;;8.56;nan;-24056.03;5032661;28;20188;-85
2022/12/18 00:18:59;;;;;;;14.95;7.85;;;;;;;8.66;nan;-24058.84;5031877;28;20183;-87
2022/12/18 00:21:25;;;;;;;21.92;9.52;;;;;;;8.56;nan;-24056.03;5033056;28;20179;-87
2022/12/18 00:23:51;;;;;;;19.63;9.15;;;;;;;8.55;nan;-24055.88;5034632;28;20175;-86
2022/12/18 00:26:21;;;;;;;13.77;7.90;;;;;;;8.30;nan;-24048.81;5032040;28;20651;-85
2022/12/18 00:28:46;;;;;;;19.48;9.07;;;;;;;8.32;nan;-24049.38;5033915;28;20756;-86
2022/12/18 00:31:15;;;;;;;16.63;8.60;;;;;;;8.54;nan;-24055.59;5031826;28;20224;-85
2022/12/18 00:33:40;;;;;;;14.50;8.23;;;;;;;8.63;nan;-24058.16;5036688;28;20873;-86
2022/12/18 00:36:09;;;;;;;18.80;8.70;;;;;;;8.60;nan;-24057.16;5031545;28;20314;-87
2022/12/18 00:38:35;;;;;;;13.55;7.07;;;;;;;8.47;nan;-24053.63;5033794;28;20233;-84
2022/12/18 00:41:06;;;;;;;20.67;10.02;;;;;;;8.57;nan;-24056.44;5031837;28;20689;-87
2022/12/18 00:43:33;;;;;;;16.65;8.25;;;;;;;8.66;nan;-24059.00;5031971;28;20206;-86
2022/12/18 00:45:59;;;;;;;15.10;8.07;;;;;;;7.84;nan;-24036.06;5031879;28;20172;-85
2022/12/18 00:48:24;;;;;;;16.77;9.00;;;;;;;8.55;nan;-24055.75;5031524;28;20181;-85
2022/12/18 00:50:50;;;;;;;15.32;8.70;;;;;;;8.38;nan;-24051.22;5031592;28;20674;-87
2022/12/18 00:53:16;;;;;;;22.40;9.88;;;;;;;8.67;nan;-24059.28;5032776;28;20191;-86
2022/12/18 00:55:42;;;;;;;20.90;9.27;;;;;;;8.52;nan;-24054.88;5031456;28;20282;-87
2022/12/18 00:58:09;;;;;;;17.77;8.95;;;;;;;8.49;nan;-24054.19;5031446;28;20740;-86
2022/12/18 01:00:35;;;;;;;15.37;8.63;;;;;;;8.64;nan;-24058.44;5030768;28;20183;-87
2022/12/18 01:03:00;;;;;;;21.13;9.43;;;;;;;8.18;nan;-24045.53;5030684;28;20698;-87
2022/12/18 01:05:26;;;;;;;17.80;7.90;;;;;;;8.58;nan;-24056.72;5031408;28;20182;-86
2022/12/18 01:07:51;;;;;;;19.70;10.30;;;;;;;8.55;nan;-24055.88;5033689;28;20188;-87
2022/12/18 01:10:17;;;;;;;13.35;8.27;;;;;;;8.61;nan;-24057.44;5035036;28;20348;-86
2022/12/18 01:12:43;;;;;;;20.10;9.40;;;;;;;8.51;nan;-24054.75;5031877;28;20667;-85
2022/12/18 01:15:10;;;;;;;14.80;9.18;;;;;;;8.34;nan;-24049.94;5031485;28;20199;-87
2022/12/18 01:17:35;;;;;;;16.85;8.20;;;;;;;8.48;nan;-24053.75;5032778;28;20183;-86
2022/12/18 01:20:01;;;;;;;15.35;8.73;;;;;;;8.76;nan;-24061.81;5031661;28;20377;-87
2022/12/18 01:22:26;;;;;;;16.15;7.85;;;;;;;8.73;nan;-24060.97;5031604;28;20541;-86
2022/12/18 01:24:52;;;;;;;16.25;8.70;;;;;;;8.33;nan;-24049.66;5032673;28;20622;-85
2022/12/18 01:27:17;;;;;;;17.25;8.25;;;;;;;8.74;nan;-24061.25;5031322;28;20193;-87
2022/12/18 01:29:43;;;;;;;16.77;8.23;;;;;;;8.64;nan;-24058.44;5031457;28;20559;-87
2022/12/18 01:32:08;;;;;;;11.55;8.05;;;;;;;8.54;nan;-24055.59;5033024;28;20233;-85
2022/12/18 01:34:35;;;;;;;17.27;8.30;;;;;;;7.57;nan;-24028.25;5031395;28;20689;-87
2022/12/18 01:37:05;;;;;;;15.48;8.88;;;;;;;8.60;nan;-24057.28;5032725;28;20591;-87
2022/12/18 01:39:34;;;;;;;17.27;8.52;;;;;;;8.74;nan;-24061.13;5031122;28;20203;-86
2022/12/18 01:42:04;;;;;;;17.50;8.88;;;;;;;8.69;nan;-24059.84;5031362;28;20175;-86
2022/12/18 01:45:03;;;;;;;20.63;9.15;;;;;;;8.80;nan;-24062.94;5031160;28;20171;-85
2022/12/18 01:47:49;;;;;;;17.70;8.10;;;;;;;8.79;nan;-24062.53;5031116;28;20184;-87
2022/12/18 01:50:19;;;;;;;17.92;9.23;;;;;;;8.84;nan;-24064.09;5031321;28;20281;-86
2022/12/18 01:53:03;;;;;;;14.27;7.82;;;;;;;8.83;nan;-24063.66;5032782;28;20178;-87
2022/12/18 01:55:32;;;;;;;15.05;8.35;;;;;;;8.77;nan;-24062.09;5031112;28;20207;-86
2022/12/18 01:57:59;;;;;;;13.93;8.45;;;;;;;8.84;nan;-24064.09;5031019;28;20190;-86
2022/12/18 02:00:26;;;;;;;15.35;7.43;;;;;;;8.73;nan;-24060.84;5031001;28;20536;-85
2022/12/18 02:02:51;;;;;;;16.98;9.15;;;;;;;8.98;nan;-24067.75;5032209;28;20269;-85
2022/12/18 02:05:41;;;;;;;15.40;8.70;;;;;;;8.91;nan;-24065.78;5032252;28;20179;-86
2022/12/18 02:08:40;;;;;;;17.10;7.88;;;;;;;9.03;nan;-24069.19;5030681;28;20179;-87
2022/12/18 02:11:22;;;;;;;14.32;7.35;;;;;;;9.06;nan;-24070.03;5032079;28;20178;-88
2022/12/18 02:14:30;;;;;;;17.27;7.07;;;;;;;8.95;nan;-24066.91;5030652;28;20179;-86
2022/12/18 02:17:11;;;;;;;19.15;7.35;;;;;;;8.64;nan;-24058.44;5027765;28;20277;-88
2022/12/18 02:19:54;;;;;;;18.77;8.93;;;;;;;8.95;nan;-24066.91;5033042;28;20263;-85
2022/12/18 02:22:35;;;;;;;18.65;8.13;;;;;;;8.85;nan;-24064.38;5028819;28;20179;-86
2022/12/18 02:25:00;;;;;;;15.18;7.88;;;;;;;8.95;nan;-24066.91;5030963;28;20233;-87
2022/12/18 02:27:28;;;;;;;11.98;7.43;;;;;;;8.83;nan;-24063.81;5030900;28;20175;-88
2022/12/18 02:29:56;;;;;;;13.20;7.43;;;;;;;8.86;nan;-24064.50;5030848;28;20187;-86
2022/12/18 02:32:28;;;;;;;14.30;6.55;;;;;;;8.75;nan;-24061.41;5031130;28;20241;-86
2022/12/18 02:34:57;;;;;;;12.38;7.18;;;;;;;8.88;nan;-24064.94;5032374;28;20298;-86
2022/12/18 02:37:26;;;;;;;11.00;6.93;;;;;;;8.82;nan;-24063.38;5032334;28;20247;-86
2022/12/18 02:39:55;;;;;;;15.50;6.55;;;;;;;9.01;nan;-24068.75;5031758;28;20175;-87
2022/12/18 02:42:21;;;;;;;12.73;6.95;;;;;;;8.87;nan;-24064.78;5031409;28;20175;-86
2022/12/18 02:44:49;;;;;;;9.70;6.22;;;;;;;9.15;nan;-24072.56;5030163;28;20171;-87
2022/12/18 02:47:17;;;;;;;12.00;7.43;;;;;;;9.20;nan;-24074.00;5032440;28;20176;-86
2022/12/18 02:49:56;;;;;;;17.02;7.20;;;;;;;9.16;nan;-24072.84;5031024;28;20175;-87
2022/12/18 02:52:50;;;;;;;12.18;7.55;;;;;;;9.41;nan;-24079.78;5032209;28;20178;-86
2022/12/18 02:55:21;;;;;;;11.15;6.43;;;;;;;9.30;nan;-24076.81;5031810;28;20199;-87
2022/12/18 02:58:05;;;;;;;13.65;6.95;;;;;;;9.10;nan;-24071.31;5039790;28;20194;-87
2022/12/18 03:00:59;;;;;;;13.27;7.68;;;;;;;9.17;nan;-24073.13;5034183;28;20195;-86
2022/12/18 03:03:33;;;;;;;15.38;7.03;;;;;;;9.20;nan;-24074.13;5013887;28;20236;-87
2022/12/18 03:06:09;;;;;;;16.05;8.13;;;;;;;9.29;nan;-24076.66;5021524;28;20624;-87
2022/12/18 03:08:41;;;;;;;13.38;6.68;;;;;;;9.39;nan;-24079.22;5034069;28;20201;-87
2022/12/18 03:11:10;;;;;;;10.95;6.60;;;;;;;9.20;nan;-24074.00;5035198;28;20521;-87
2022/12/18 03:13:41;;;;;;;16.10;6.53;;;;;;;9.28;nan;-24076.38;5035456;28;20179;-87
2022/12/18 03:16:11;;;;;;;11.30;5.97;;;;;;;9.19;nan;-24073.84;5035064;28;20214;-88
2022/12/18 03:18:43;;;;;;;14.73;7.57;;;;;;;9.08;nan;-24070.59;5034573;28;20552;-88
2022/12/18 03:21:10;;;;;;;12.13;6.25;;;;;;;9.13;nan;-24072.16;5034219;28;20183;-88
2022/12/18 03:23:42;;;;;;;13.13;6.28;;;;;;;9.24;nan;-24075.13;5036139;28;20624;-88
2022/12/18 03:26:15;;;;;;;8.23;5.40;;;;;;;9.23;nan;-24074.84;5034276;28;20241;-87
2022/12/18 03:28:47;;;;;;;10.15;5.85;;;;;;;9.11;nan;-24071.59;5034047;28;20666;-87
2022/12/18 03:31:14;;;;;;;10.13;5.43;;;;;;;9.12;nan;-24071.72;5034808;28;20178;-86
2022/12/18 03:33:50;;;;;;;12.57;5.80;;;;;;;9.39;nan;-24079.34;5036354;28;20183;-87
2022/12/18 03:36:16;;;;;;;8.27;5.35;;;;;;;9.11;nan;-24071.59;5026614;28;20256;-87
2022/12/18 03:38:42;;;;;;;7.28;4.75;;;;;;;9.38;nan;-24078.94;5034153;28;20273;-85
2022/12/18 03:41:20;;;;;;;15.90;5.53;;;;;;;9.43;nan;-24080.34;5033605;28;20647;-88
2022/12/18 03:44:00;;;;;;;9.27;5.07;;;;;;;9.68;nan;-24087.56;5014237;28;20671;-87
2022/12/18 03:46:54;;;;;;;6.05;4.03;;;;;;;9.63;nan;-24086.00;5013887;28;20176;-88
2022/12/18 03:49:35;;;;;;;11.90;4.68;;;;;;;9.52;nan;-24083.03;5013600;28;20651;-88
2022/12/18 03:52:14;;;;;;;7.35;4.32;;;;;;;9.66;nan;-24086.84;5013825;28;20172;-86
2022/12/18 03:54:42;;;;;;;6.63;4.05;;;;;;;9.37;nan;-24078.78;5013402;28;20290;-87
2022/12/18 03:57:16;;;;;;;8.40;4.78;;;;;;;9.50;nan;-24082.47;5015154;28;20270;-86
2022/12/18 03:59:44;;;;;;;7.22;5.03;;;;;;;9.39;nan;-24079.34;5015033;28;20172;-88
2022/12/18 04:02:10;;;;;;;4.95;4.13;;;;;;;9.63;nan;-24086.13;5028531;28;20206;-88
2022/12/18 04:04:39;;;;;;;8.30;5.30;;;;;;;8.67;nan;-24059.28;5034641;28;20590;-88
2022/12/18 04:07:06;;;;;;;13.38;5.68;;;;;;;9.57;nan;-24084.44;5032641;28;20270;-86
2022/12/18 04:09:33;;;;;;;10.80;5.25;;;;;;;9.45;nan;-24081.06;5036882;28;20576;-88
2022/12/18 04:11:59;;;;;;;5.95;4.43;;;;;;;9.43;nan;-24080.50;5036827;28;20261;-86
2022/12/18 04:14:24;;;;;;;8.40;4.88;;;;;;;9.48;nan;-24081.91;5040578;28;20734;-87
2022/12/18 04:16:50;;;;;;;9.07;4.65;;;;;;;9.51;nan;-24082.75;5042120;28;20187;-86
2022/12/18 04:19:16;;;;;;;6.55;4.00;;;;;;;9.33;nan;-24077.66;5040554;28;20189;-86
2022/12/18 04:21:41;;;;;;;10.75;5.50;;;;;;;9.40;nan;-24079.63;5043582;28;20195;-86
2022/12/18 04:24:07;;;;;;;7.95;4.35;;;;;;;9.52;nan;-24083.03;5039611;28;20195;-88
2022/12/18 04:26:32;;;;;;;8.65;5.05;;;;;;;9.34;nan;-24077.81;5039598;28;20191;-89
2022/12/18 04:28:58;;;;;;;7.93;4.25;;;;;;;9.20;nan;-24074.00;5034571;28;20187;-88
2022/12/18 04:31:23;;;;;;;7.25;4.22;;;;;;;9.35;nan;-24078.22;5040658;28;20194;-86
2022/12/18 04:33:48;;;;;;;6.30;4.43;;;;;;;9.16;nan;-24073.00;5038637;28;20229;-89
2022/12/18 04:36:14;;;;;;;6.10;3.72;;;;;;;9.34;nan;-24077.81;5037135;28;20694;-88
2022/12/18 04:38:39;;;;;;;6.07;3.92;;;;;;;9.25;nan;-24075.41;5040666;28;20206;-87
2022/12/18 04:41:05;;;;;;;6.55;3.50;;;;;;;9.18;nan;-24073.41;5041878;28;20293;-88
2022/12/18 04:43:32;;;;;;;5.93;3.65;;;;;;;8.91;nan;-24065.78;5036439;28;20646;-88
2022/12/18 04:46:05;;;;;;;5.68;3.20;;;;;;;9.15;nan;-24072.56;5036370;28;20665;-87
2022/12/18 04:48:30;;;;;;;4.97;3.17;;;;;;;8.82;nan;-24063.53;5036888;28;20179;-87
2022/12/18 04:50:56;;;;;;;5.78;3.38;;;;;;;9.04;nan;-24069.47;5040408;28;20700;-85
2022/12/18 04:53:22;;;;;;;6.75;3.40;;;;;;;8.92;nan;-24066.06;5039908;28;20187;-87
2022/12/18 04:55:47;;;;;;;3.53;2.85;;;;;;;9.01;nan;-24068.63;5042677;28;20210;-84
2022/12/18 04:58:12;;;;;;;3.13;2.35;;;;;;;8.72;nan;-24060.56;5042625;28;20317;-87
2022/12/18 05:00:38;;;;;;;3.72;2.75;;;;;;;8.78;nan;-24062.25;5034010;28;20291;-88
2022/12/18 05:03:03;;;;;;;3.50;2.47;;;;;;;8.86;nan;-24064.66;5030043;28;20231;-86
2022/12/18 05:05:29;;;;;;;4.88;2.90;;;;;;;8.81;nan;-24063.25;5038710;28;20186;-86
2022/12/18 05:07:54;;;;;;;2.65;2.38;;;;;;;8.82;nan;-24063.53;5037527;28;20171;-86
2022/12/18 05:10:20;;;;;;;3.15;2.42;;;;;;;8.77;nan;-24061.97;5034131;28;20515;-86
2022/12/18 05:13:03;;;;;;;2.92;2.53;;;;;;;8.58;nan;-24056.59;5030991;28;20179;-86
2022/12/18 05:15:31;;;;;;;3.85;3.05;;;;;;;8.82;nan;-24063.38;5036160;28;20213;-87
2022/12/18 05:17:57;;;;;;;4.13;2.88;;;;;;;8.81;nan;-24063.25;5038496;28;20257;-86
2022/12/18 05:20:23;;;;;;;3.55;2.53;;;;;;;8.59;nan;-24057.00;5039589;28;20191;-86
2022/12/18 05:22:49;;;;;;;3.05;2.28;;;;;;;8.96;nan;-24067.19;5041785;28;20207;-87
2022/12/18 05:25:14;;;;;;;5.03;3.10;;;;;;;8.83;nan;-24063.81;5034895;28;20226;-87
2022/12/18 05:27:40;;;;;;;3.50;3.17;;;;;;;8.92;nan;-24066.22;5040280;28;20717;-86
2022/12/18 05:30:06;;;;;;;5.47;3.10;;;;;;;8.99;nan;-24068.03;5040101;28;20186;-88
2022/12/18 05:32:32;;;;;;;3.92;2.75;;;;;;;8.92;nan;-24066.06;5037759;28;20274;-87
2022/12/18 05:34:57;;;;;;;5.00;3.20;;;;;;;8.83;nan;-24063.81;5037122;28;20281;-87
2022/12/18 05:37:23;;;;;;;5.75;2.95;;;;;;;8.84;nan;-24063.94;5033789;28;20202;-87
2022/12/18 05:39:48;;;;;;;4.53;3.30;;;;;;;8.73;nan;-24060.97;5031021;28;20225;-87
2022/12/18 05:42:14;;;;;;;5.78;3.30;;;;;;;8.92;nan;-24066.06;5037557;28;20186;-85
2022/12/18 05:44:39;;;;;;;4.50;3.17;;;;;;;8.97;nan;-24067.47;5038308;28;20240;-87
2022/12/18 05:47:05;;;;;;;4.10;2.63;;;;;;;9.03;nan;-24069.31;5029650;28;20184;-87
2022/12/18 05:49:30;;;;;;;3.25;2.63;;;;;;;8.98;nan;-24067.91;5034573;28;20241;-87
2022/12/18 05:51:55;;;;;;;3.78;2.75;;;;;;;8.98;nan;-24067.75;5037914;28;20273;-88
2022/12/18 05:54:22;;;;;;;3.63;2.28;;;;;;;8.72;nan;-24060.56;5036996;28;20207;-85
2022/12/18 05:56:47;;;;;;;5.15;2.95;;;;;;;9.01;nan;-24068.63;5030636;28;20183;-84
2022/12/18 05:59:13;;;;;;;4.00;3.40;;;;;;;8.83;nan;-24063.81;5030610;28;20269;-81
2022/12/18 06:01:38;;;;;;;4.28;2.92;;;;;;;9.00;nan;-24068.34;5028871;28;20182;-84
2022/12/18 06:04:04;;;;;;;3.33;2.60;;;;;;;9.06;nan;-24070.16;5030735;28;20223;-83
2022/12/18 06:06:30;;;;;;;3.55;2.70;;;;;;;9.10;nan;-24071.16;5027494;28;20171;-81
2022/12/18 06:08:56;;;;;;;5.10;3.20;;;;;;;9.06;nan;-24070.16;5029595;28;20180;-83
2022/12/18 06:11:25;;;;;;;4.00;2.92;;;;;;;9.05;nan;-24069.88;5030160;28;20232;-84
2022/12/18 06:13:53;;;;;;;5.28;3.13;;;;;;;9.20;nan;-24074.00;5030025;28;20179;-83
2022/12/18 06:16:18;;;;;;;4.35;3.03;;;;;;;9.22;nan;-24074.56;5027163;28;20278;-83
2022/12/18 06:18:44;;;;;;;5.95;3.38;;;;;;;9.17;nan;-24073.28;5030315;28;20203;-82
2022/12/18 06:21:09;;;;;;;3.95;2.60;;;;;;;9.02;nan;-24068.91;5030727;28;20178;-86
2022/12/18 06:23:35;;;;;;;5.13;3.10;;;;;;;9.16;nan;-24072.84;5030438;28;20203;-85
2022/12/18 06:26:09;;;;;;;3.72;2.80;;;;;;;9.10;nan;-24071.16;5029192;28;20669;-83
2022/12/18 06:28:35;;;;;;;4.00;2.80;;;;;;;9.20;nan;-24074.13;5030155;28;20175;-82
2022/12/18 06:31:02;;;;;;;4.50;2.90;;;;;;;9.46;nan;-24081.19;5031631;28;20217;-83
2022/12/18 06:33:27;;;;;;;3.87;2.77;;;;;;;9.40;nan;-24079.50;5036356;28;20184;-82
2022/12/18 06:35:54;;;;;;;7.13;2.20;;;;;;;9.29;nan;-24076.53;5035354;28;20561;-84
2022/12/18 06:38:19;;;;;;;4.30;2.97;;;;;;;9.04;nan;-24069.59;5034086;28;20188;-84
2022/12/18 06:40:45;;;;;;;4.70;2.47;;;;;;;9.29;nan;-24076.53;5034407;28;20663;-83
2022/12/18 06:43:10;;;;;;;4.35;2.63;;;;;;;9.50;nan;-24082.47;5034114;28;20176;-84
2022/12/18 06:45:36;;;;;;;3.83;3.00;;;;;;;9.35;nan;-24078.22;5034020;28;20186;-83
2022/12/18 06:48:01;;;;;;;4.23;2.50;;;;;;;9.42;nan;-24080.22;5036028;28;20180;-82
2022/12/18 06:50:27;;;;;;;5.10;3.63;;;;;;;9.34;nan;-24077.94;5033609;28;20175;-84
2022/12/18 06:52:52;;;;;;;3.80;2.65;;;;;;;9.57;nan;-24084.31;5033614;28;20182;-84
2022/12/18 06:55:18;;;;;;;3.93;2.37;;;;;;;9.48;nan;-24081.75;5033735;28;20233;-85
2022/12/18 06:57:43;;;;;;;4.63;2.40;;;;;;;9.27;nan;-24076.09;5033550;28;20186;-83
2022/12/18 07:00:09;;;;;;;4.70;3.37;;;;;;;9.54;nan;-24083.47;5033860;28;20245;-84
2022/12/18 07:02:35;;;;;;;4.30;2.92;;;;;;;9.59;nan;-24085.00;5033554;28;20666;-85
2022/12/18 07:05:01;;;;;;;3.27;2.73;;;;;;;9.52;nan;-24082.91;5033937;28;20168;-83
2022/12/18 07:07:26;;;;;;;5.38;3.45;;;;;;;9.43;nan;-24080.50;5033610;28;20189;-84
2022/12/18 07:09:52;;;;;;;5.55;3.38;;;;;;;9.53;nan;-24083.16;5034119;28;20179;-84
2022/12/18 07:12:18;;;;;;;5.80;2.88;;;;;;;9.18;nan;-24073.56;5033684;28;20187;-83
2022/12/18 07:14:43;;;;;;;7.63;3.20;;;;;;;9.53;nan;-24083.31;5035081;28;20567;-83
2022/12/18 07:17:09;;;;;;;4.25;2.85;;;;;;;9.34;nan;-24077.81;5035893;28;20172;-83
2022/12/18 07:19:34;;;;;;;5.07;3.05;;;;;;;9.54;nan;-24083.59;5033663;28;20183;-85
2022/12/18 07:22:00;;;;;;;2.58;2.35;;;;;;;9.29;nan;-24076.53;5035045;28;20229;-82
2022/12/18 07:24:26;;;;;;;4.20;2.85;;;;;;;9.45;nan;-24080.91;5037140;28;20565;-86
2022/12/18 07:26:52;;;;;;;5.18;3.00;;;;;;;9.48;nan;-24081.75;5034803;28;20183;-86
2022/12/18 07:29:17;;;;;;;5.43;3.60;;;;;;;9.54;nan;-24083.47;5037926;28;20797;-83
2022/12/18 07:31:43;;;;;;;5.25;3.47;;;;;;;9.50;nan;-24082.47;5040670;28;20533;-81
2022/12/18 07:34:14;;;;;;;7.40;3.30;;;;;;;9.43;nan;-24080.34;5038005;28;20659;-81
2022/12/18 07:36:40;;;;;;;4.72;2.95;;;;;;;9.51;nan;-24082.75;5032537;28;20193;-83
2022/12/18 07:39:06;;;;;;;4.45;2.75;;;;;;;9.51;nan;-24082.75;5037209;28;20182;-83
2022/12/18 07:41:32;;;;;;;3.85;2.75;;;;;;;9.47;nan;-24081.47;5036320;28;20266;-84
2022/12/18 07:43:58;;;;;;;5.20;3.25;;;;;;;9.41;nan;-24079.91;5038266;28;20176;-80
2022/12/18 07:46:23;;;;;;;5.47;2.97;;;;;;;9.32;nan;-24077.38;5036441;28;20191;-81
2022/12/18 07:48:49;;;;;;;5.78;2.80;;;;;;;9.37;nan;-24078.78;5041025;28;20194;-80
2022/12/18 07:51:14;;;;;;;5.75;3.47;;;;;;;9.31;nan;-24077.09;5034984;28;20274;-81
2022/12/18 07:53:40;;;;;;;4.20;2.75;;;;;;;9.26;nan;-24075.69;5032705;28;20194;-82
2022/12/18 07:56:09;;;;;;;4.25;2.83;;;;;;;9.61;nan;-24085.56;5032334;28;20211;-82
2022/12/18 07:58:34;;;;;;;7.65;3.40;;;;;;;9.70;nan;-24087.97;5032686;28;20191;-81
2022/12/18 08:01:08;;;;;;;4.47;3.17;;;;;;;9.68;nan;-24087.41;5032458;28;20540;-83
2022/12/18 08:03:34;;;;;;;5.72;3.17;;;;;;;9.52;nan;-24083.03;5033552;28;20234;-83
2022/12/18 08:06:04;;;;;;;5.00;3.13;;;;;;;9.64;nan;-24086.44;5032158;28;20172;-82
2022/12/18 08:08:31;;;;;;;4.68;2.90;;;;;;;9.76;nan;-24089.81;5032298;28;20670;-82
2022/12/18 08:10:57;;;;;;;5.68;3.60;;;;;;;9.74;nan;-24089.09;5033484;28;20182;-82
2022/12/18 08:13:23;;;;;;;5.68;3.33;;;;;;;9.48;nan;-24081.91;5031915;28;20203;-82
2022/12/18 08:15:59;;;;;;;13.30;4.00;;;;;;;9.66;nan;-24086.97;5032094;28;20207;-83
2022/12/18 08:18:25;;;;;;;6.47;3.50;;;;;;;9.64;nan;-24086.28;5032447;28;20297;-82
2022/12/18 08:20:50;;;;;;;6.38;3.28;;;;;;;9.87;nan;-24092.78;5032923;28;20266;-83
2022/12/18 08:23:16;;;;;;;6.40;4.53;;;;;;;9.96;nan;-24095.19;5038510;28;20650;-82
2022/12/18 08:25:41;;;;;;;5.72;3.13;;;;;;;9.84;nan;-24091.78;5032551;28;20183;-83
2022/12/18 08:28:07;;;;;;;6.10;3.33;;;;;;;9.61;nan;-24085.44;5031794;28;20286;-82
2022/12/18 08:30:32;;;;;;;6.78;3.92;;;;;;;9.86;nan;-24092.50;5031876;28;20198;-82
2022/12/18 08:32:57;;;;;;;7.70;4.10;;;;;;;9.98;nan;-24095.88;5032820;28;20174;-83
2022/12/18 08:35:23;;;;;;;4.25;3.15;;;;;;;10.06;nan;-24098.00;5032191;28;20724;-83
2022/12/18 08:37:49;;;;;;;4.50;2.97;;;;;;;10.03;nan;-24097.16;5031943;28;20205;-83
2022/12/18 08:40:14;;;;;;;6.30;3.65;;;;;;;10.13;nan;-24099.97;5031896;28;20271;-81
2022/12/18 08:45:24;;;;;;;3.72;2.83;;;;;;;10.05;nan;-24097.72;5032892;28;20233;-83
2022/12/18 08:47:50;;;;;;;5.32;3.20;;;;;;;9.94;nan;-24094.75;5031597;28;20686;-83
2022/12/18 08:50:15;;;;;;;3.80;2.85;;;;;;;9.81;nan;-24091.09;5031498;28;20184;-82
2022/12/18 08:52:41;;;;;;;7.10;3.38;;;;;;;10.14;nan;-24100.25;5031816;28;20168;-83
2022/12/18 08:55:08;;;;;;;7.38;3.97;;;;;;;10.24;nan;-24103.09;5031578;28;20203;-83
2022/12/18 08:57:33;;;;;;;6.97;3.80;;;;;;;10.22;nan;-24102.53;5030765;28;20214;-84
2022/12/18 08:59:59;;;;;;;5.38;3.65;;;;;;;10.11;nan;-24099.41;5031151;28;20301;-83
2022/12/18 09:02:24;;;;;;;5.35;3.33;;;;;;;10.28;nan;-24104.06;5030618;28;20211;-83
2022/12/18 09:04:50;;;;;;;5.20;3.20;;;;;;;9.97;nan;-24095.47;5030976;28;20187;-70
2022/12/18 09:07:15;;;;;;;4.78;3.30;;;;;;;10.19;nan;-24101.81;5034425;28;20174;-70
2022/12/18 09:09:41;;;;;;;3.97;3.47;;;;;;;10.36;nan;-24106.34;5032013;28;20179;-70
2022/12/18 09:12:06;;;;;;;5.85;3.50;;;;;;;10.24;nan;-24103.09;5036289;28;20175;-69
2022/12/18 09:14:31;;;;;;;4.95;3.47;;;;;;;10.70;nan;-24115.78;5032415;28;20207;-68
2022/12/18 09:16:57;;;;;;;5.65;3.38;;;;;;;10.73;nan;-24116.78;5034548;28;20182;-70
2022/12/18 09:19:22;;;;;;;5.60;3.30;;;;;;;;;;5032892;28;20241;-69
2022/12/18 09:21:47;;;;;;;4.38;2.80;;;;;;;10.77;nan;-24117.91;5032830;28;20186;-70
2022/12/18 09:24:14;;;;;;;7.68;4.03;;;;;;;10.71;nan;-24116.22;5032277;28;20191;-70
2022/12/18 09:26:39;;;;;;;5.18;3.13;;;;;;;10.48;nan;-24109.88;5032216;28;20689;-71
2022/12/18 09:29:06;;;;;;;5.13;3.33;;;;;;;10.32;nan;-24105.22;5032233;28;20183;-71
2022/12/18 09:31:33;;;;;;;6.22;4.13;;;;;;;10.56;nan;-24112.13;5032483;28;20167;-76
2022/12/18 09:33:58;;;;;;;7.32;4.03;;;;;;;10.30;nan;-24104.66;5031594;28;20670;-69
2022/12/18 09:36:23;;;;;;;6.97;3.60;;;;;;;10.31;nan;-24105.06;5036758;28;20203;-71
2022/12/18 09:38:49;;;;;;;7.30;3.90;;;;;;;10.51;nan;-24110.56;5032081;28;20195;-70
2022/12/18 09:41:33;;;;;;;7.50;3.60;;;;;;;10.95;nan;-24123.00;5032064;28;20206;-70
2022/12/18 09:44:05;;;;;;;4.32;3.22;;;;;;;10.66;nan;-24114.66;5034275;28;20211;-70
2022/12/18 09:46:40;;;;;;;9.13;3.60;;;;;;;10.56;nan;-24112.13;5031306;28;20278;-73
2022/12/18 09:49:12;;;;;;;9.73;4.00;;;;;;;10.10;nan;-24099.28;5031379;28;20178;-74
2022/12/18 09:51:43;;;;;;;6.78;3.80;;;;;;;10.30;nan;-24104.66;5031705;28;20163;-72
2022/12/18 09:54:17;;;;;;;7.55;3.72;;;;;;;10.56;nan;-24111.97;5036352;28;20237;-73
2022/12/18 09:56:43;;;;;;;4.90;3.30;;;;;;;10.47;nan;-24109.59;5031615;28;20206;-72
2022/12/18 09:59:23;;;;;;;6.28;3.63;;;;;;;10.41;nan;-24107.88;5030138;28;20183;-72
2022/12/18 10:01:49;;;;;;;6.50;3.13;;;;;;;9.39;nan;-24079.34;5031644;28;20193;-74
2022/12/18 10:04:14;;;;;;;7.13;3.72;;;;;;;10.18;nan;-24101.41;5031478;28;20218;-73
2022/12/18 10:07:09;;;;;;;6.18;3.67;;;;;;;10.44;nan;-24108.59;5029401;28;20620;-74
2022/12/18 10:10:00;;;;;;;4.97;3.33;;;;;;;10.15;nan;-24100.53;5033270;28;20278;-73
2022/12/18 10:12:31;;;;;;;10.75;3.60;;;;;;;10.22;nan;-24102.38;5031423;28;20180;-72
2022/12/18 10:15:00;;;;;;;6.50;3.35;;;;;;;10.39;nan;-24107.31;5011777;28;20188;-73
2022/12/18 10:17:37;;;;;;;6.85;3.83;;;;;;;10.47;nan;-24109.44;5016489;28;20258;-72
2022/12/18 10:20:18;;;;;;;6.75;3.75;;;;;;;10.43;nan;-24108.47;5031004;28;20179;-72
2022/12/18 10:23:09;;;;;;;4.55;3.38;;;;;;;10.13;nan;-24100.13;5031403;28;20174;-73
2022/12/18 10:25:55;;;;;;;5.90;3.15;;;;;;;10.47;nan;-24109.59;5031405;28;20182;-72
2022/12/18 10:28:23;;;;;;;3.75;2.78;;;;;;;10.60;nan;-24113.25;5031175;28;20638;-70
2022/12/18 10:30:48;;;;;;;5.25;3.28;;;;;;;10.56;nan;-24112.13;5030782;28;20293;-73
2022/12/18 10:33:23;;;;;;;4.38;3.08;;;;;;;10.21;nan;-24102.09;5030922;28;20166;-73
2022/12/18 10:35:52;;;;;;;5.55;3.20;;;;;;;10.51;nan;-24110.72;5030761;28;20728;-72
2022/12/18 10:38:18;;;;;;;5.38;3.72;;;;;;;10.55;nan;-24111.84;5030982;28;20362;-73
2022/12/18 10:41:05;;;;;;;7.53;3.70;;;;;;;10.52;nan;-24111.00;5031207;28;20195;-72
2022/12/18 10:43:33;;;;;;;7.30;3.72;;;;;;;10.43;nan;-24108.47;5030798;28;20242;-72
2022/12/18 10:46:14;;;;;;;5.72;3.17;;;;;;;10.44;nan;-24108.59;5031010;28;20183;-72
2022/12/18 10:48:53;;;;;;;7.88;3.28;;;;;;;10.40;nan;-24107.63;5030875;28;20171;-71
2022/12/18 10:51:29;;;;;;;5.10;3.03;;;;;;;10.45;nan;-24108.88;5030856;28;20198;-72
2022/12/18 10:54:04;;;;;;;4.60;2.97;;;;;;;10.39;nan;-24107.31;5030614;28;20214;-72
2022/12/18 10:56:33;;;;;;;4.97;3.20;;;;;;;10.13;nan;-24100.13;5030802;28;20197;-72
2022/12/18 10:58:58;;;;;;;7.35;3.80;;;;;;;10.37;nan;-24106.63;5028989;28;20195;-73
2022/12/18 11:01:26;;;;;;;4.10;3.03;;;;;;;10.27;nan;-24103.78;5032854;28;20194;-72
2022/12/18 11:03:58;;;;;;;5.07;3.33;;;;;;;10.27;nan;-24103.94;5030675;28;20613;-73
2022/12/18 11:06:24;;;;;;;4.70;2.78;;;;;;;10.00;nan;-24096.44;5030663;28;20176;-71
2022/12/18 11:09:00;;;;;;;8.80;3.60;;;;;;;10.01;nan;-24096.59;5030453;28;20541;-73
2022/12/18 11:11:26;;;;;;;5.03;3.10;;;;;;;9.70;nan;-24087.97;5030819;28;20190;-72
2022/12/18 11:14:12;;;;;;;5.82;3.25;;;;;;;9.67;nan;-24087.13;5030481;28;20175;-72
2022/12/18 11:16:45;;;;;;;7.18;2.95;;;;;;;9.27;nan;-24076.09;5030570;28;20180;-71
2022/12/18 11:19:27;;;;;;;5.93;3.53;;;;;;;9.05;nan;-24069.88;5032801;28;20217;-73
2022/12/18 11:21:53;;;;;;;5.82;3.20;;;;;;;9.31;nan;-24077.09;5033658;28;20184;-74
2022/12/18 11:24:31;;;;;;;5.50;3.75;;;;;;;8.95;nan;-24067.06;5034369;28;20662;-73
2022/12/18 11:27:03;;;;;;;7.68;3.90;;;;;;;9.11;nan;-24071.59;5034079;28;20167;-71
2022/12/18 11:29:33;;;;;;;7.80;3.78;;;;;;;8.99;nan;-24068.03;5032520;28;20237;-72
2022/12/18 11:32:17;;;;;;;5.27;3.20;;;;;;;8.70;nan;-24059.97;5035091;28;20171;-72
2022/12/18 11:34:49;;;;;;;5.13;3.10;;;;;;;8.56;nan;-24056.03;5034838;28;20294;-73
2022/12/18 11:37:19;;;;;;;6.83;3.47;;;;;;;8.71;nan;-24060.25;5036935;28;20187;-73
2022/12/18 11:39:56;;;;;;;4.57;3.33;;;;;;;8.45;nan;-24052.91;5033810;28;20186;-74
2022/12/18 11:42:50;;;;;;;7.03;3.50;;;;;;;8.77;nan;-24061.97;5034816;28;20175;-72
2022/12/18 11:45:40;;;;;;;6.77;3.93;;;;;;;8.62;nan;-24057.88;5016128;28;20176;-72
2022/12/18 11:48:32;;;;;;;6.23;3.57;;;;;;;9.03;nan;-24069.19;5040729;28;20247;-75
2022/12/18 11:51:02;;;;;;;7.27;3.20;;;;;;;8.58;nan;-24056.59;5034204;28;20670;-75
2022/12/18 11:53:30;;;;;;;14.97;3.70;;;;;;;8.49;nan;-24054.03;5034160;28;20183;-75
2022/12/18 11:56:26;;;;;;;5.53;3.60;;;;;;;9.00;nan;-24068.34;5033926;28;20284;-72
2022/12/18 11:59:30;;;;;;;7.60;3.70;;;;;;;9.07;nan;-24070.31;5036999;28;20191;-72
2022/12/18 12:02:17;;;;;;;5.83;3.77;;;;;;;8.84;nan;-24063.94;5037635;28;20175;-73